Ana Sayfa
METAR-TAF:

METAR-TAF

Havaalanları :

Bay City, Teksas, Amerika Birleşik Devletleri

Enlem: 28-58-23N, Boylam: 095-51-48W, yükseklik: 14 m

Güncel hava durumu gözlemi

Rapor saat 22:35 UTC de 27 dakika önce yapıldı.
Rüzgar güneydan 8 kt
Sıcaklık 23°C
Nem 69%
Basınç 1014 hPa
Görüş mesafesi: 16.1 km
2700 ft yükseklikte parçalı bulutlu

METAR: KBYY 082235Z AUTO 17008KT 10SM SCT027 23/17 A2995 RMK AO2 T02360179

Saat: 17:02 (23:02 UTC)


TAF: eksik

4.000'den fazla havaalanı için hava durumu gözlemleri ve tahminleri (METAR ve TAF raporları).

Kullanılabilir istasyonlar harita üzerinde sarı ve kırmızı noktalarla gösterilir.

İstasyonun adını görmek için fareyi noktanın üzerinde gezdirin.

Sonrasında hava gözlem ve tahminlerini görmek için tıklayın.

Haritayı değiştirmek için: yaklaştırmak için siyah artı işaretli yeşil düğmeye ve uzaklaştırmak için de eksi işaretli düğmeye hızla tıklayın; bitişik haritalar için yeşil okları kullanın.


METAR-TAF: